AirNav   TITAN Aviation Fuels
 
 1061 users online  

0WA6 Swedish Edmonds Heliport
Edmonds, Washington, USA

GOING TO EDMONDS?


FAA INFORMATION EFFECTIVE 22 APRIL 2021

Location

FAA Identifier: 0WA6
Lat/Long: 47-48-13.3480N 122-20-03.4730W
47-48.222467N 122-20.057883W
47.8037078,-122.3342981
(estimated)
Elevation: 370 ft. / 113 m (estimated)
Variation: 20E (1985)
From city: 2 miles E of EDMONDS, WA
Time zone: UTC -7 (UTC -8 during Standard Time)
Zip code: 98026

Heliport Operations

Heliport use: Private use, MEDICAL USE.
Activation date: 06/1974
Control tower: no
ARTCC: SEATTLE CENTER
FSS: SEATTLE FLIGHT SERVICE STATION
Attendance: DAYLIGHT HOURS
Wind indicator: yes
Segmented circle: no

Heliport Communications

WX ASOS at PAE (7 nm N): 128.65 (425-355-6192)
WX ASOS at BFI (16 nm S): PHONE 206-658-6435
WX ASOS at RNT (19 nm S): 126.95 (425-255-6080)

Nearby radio navigation aids

VOR radial/distance  VOR name  Freq  Var
PAEr178/7.3PAINE VOR/DME110.6020E
SEAr338/22.1SEATTLE VORTAC116.8019E
CVVr130/30.7PENN COVE VOR/DME117.2019E

Heliport Services

Airframe service: NONE
Powerplant service: NONE

Runway Information

Helipad H1

Dimensions: 70 x 70 ft. / 21 x 21 m
Surface: asphalt, in fair condition
Latitude: 47-48.222467N
Longitude: 122-20.057883W
Elevation: 370.0 ft.
Traffic pattern: leftleft
Markings: none, in fair condition

Heliport Ownership and Management from official FAA records

Ownership: Privately-owned
Owner: VERDANT HEALTH
21601 76TH AVE W
EDMONDS, WA 98026
Phone 425-744-4000
Manager: JENNIFER GRAVES
21601 76TH AVE W
EDMONDS, WA 98026
Phone 425-744-4000

Additional Remarks

LANDING SITE FOR EMERGENCY TRANSPORTATION OF SICK AND INJURED.
FOR CD CTC SEATTLE APCH AT 206-214-4794.

Instrument Procedures

There are no published instrument procedures at 0WA6.

Some nearby airports with instrument procedures:

KPAE - Snohomish County Airport (Paine Field) (7 nm N)
S43 - Harvey Field Airport (11 nm NE)
KBFI - Boeing Field/King County International Airport (16 nm S)
KRNT - Renton Municipal Airport (19 nm S)
KSEA - Seattle-Tacoma International Airport (21 nm S)
 
Loc | Ops | Rwys | IFR | FBO | Links
Com | Nav | Svcs | Stats | Notes
Area around 0WA6 (Swedish Edmonds Heliport)
 
Road maps at: MapQuest Bing Google
 
Aerial photo
No photo
 
Sectional chart

 
Airport distance calculator
Flying to Swedish Edmonds Heliport? Find the distance to fly.

From to 0WA6

Sunrise and sunset
Times for 16-May-2021
 Local
(UTC-7)
 Zulu
(UTC)
Morning civil twilight04:5411:54
Sunrise05:3112:31
Sunset20:4103:41
Evening civil twilight21:1804:18

Current date and time
Zulu (UTC)  17-May-2021 01:52:13
Local (UTC-7)  16-May-2021 18:52:13
 
METAR
KPAE 
7nm N 
170053Z 35005KT 10SM CLR 21/10 A2990 RMK AO2 SLP125 T02110100 PNO $
KBFI 
15nm S 
170053Z 30005KT 10SM CLR 24/11 A2987 RMK AO2 SLP115 T02390106
KRNT 
19nm S 
170053Z 35005KT 9SM CLR 25/11 A2987 RMK AO2 SLP119 T02500111 $
TAF
KPAE 
7nm N 
161720Z 1618/1718 29007KT P6SM SKC FM170100 36008KT P6SM SKC FM170600 01007KT P6SM SCT060 FM171000 17009KT P6SM BKN015 FM171200 18011KT P6SM OVC009
KBFI 
15nm S 
161720Z 1618/1718 28007KT P6SM SKC FM170600 23008KT P6SM SCT060 FM171100 21006KT P6SM BKN018 FM171300 21006KT P6SM OVC014
NOTAMs
Click for the latest NOTAMs
NOTAMs are issued by the DoD/FAA and will open in a separate window not controlled by AirNav.

 

 
 

Would you like to see your business listed on this page?

 If your business provides an interesting product or service to pilots, flight crews, aircraft, or users of the Swedish Edmonds Heliport, you should consider listing it here.  To start the listing process, click on the button below
 
Add a business
 

Other Pages about Swedish Edmonds Heliport

Update a link
 
Copyright © AirNav, LLC. All rights reserved. Privacy Policy  Contact